sensor_id;sensor_type;location;lat;lon;timestamp;P1;durP1;ratioP1;P2;durP2;ratioP2
71125;SDS011;58785;55.566;38.058;2023-10-13T00:00:26;5.90;;;0.95;;
71125;SDS011;58785;55.566;38.058;2023-10-13T00:06:11;6.43;;;1.00;;
71125;SDS011;58785;55.566;38.058;2023-10-13T00:08:37;4.32;;;0.70;;
71125;SDS011;58785;55.566;38.058;2023-10-13T00:11:05;6.07;;;0.73;;
71125;SDS011;58785;55.566;38.058;2023-10-13T00:13:33;5.20;;;0.65;;
71125;SDS011;58785;55.566;38.058;2023-10-13T00:16:16;7.50;;;0.95;;
71125;SDS011;58785;55.566;38.058;2023-10-13T00:18:48;6.33;;;0.70;;
71125;SDS011;58785;55.566;38.058;2023-10-13T00:21:16;4.38;;;0.70;;
71125;SDS011;58785;55.566;38.058;2023-10-13T00:23:45;6.13;;;0.90;;
71125;SDS011;58785;55.566;38.058;2023-10-13T00:26:22;3.92;;;0.85;;
71125;SDS011;58785;55.566;38.058;2023-10-13T00:28:56;7.28;;;1.00;;
71125;SDS011;58785;55.566;38.058;2023-10-13T00:31:40;5.57;;;0.70;;
71125;SDS011;58785;55.566;38.058;2023-10-13T00:34:13;5.20;;;0.90;;
71125;SDS011;58785;55.566;38.058;2023-10-13T00:36:58;3.22;;;0.65;;
71125;SDS011;58785;55.566;38.058;2023-10-13T00:39:42;7.43;;;1.05;;
71125;SDS011;58785;55.566;38.058;2023-10-13T00:42:13;3.42;;;0.80;;
71125;SDS011;58785;55.566;38.058;2023-10-13T00:44:49;4.00;;;0.60;;
71125;SDS011;58785;55.566;38.058;2023-10-13T00:47:16;6.15;;;0.75;;
71125;SDS011;58785;55.566;38.058;2023-10-13T00:50:04;4.00;;;0.70;;
71125;SDS011;58785;55.566;38.058;2023-10-13T00:52:37;4.80;;;0.60;;
71125;SDS011;58785;55.566;38.058;2023-10-13T00:55:10;6.63;;;1.00;;
71125;SDS011;58785;55.566;38.058;2023-10-13T00:57:39;4.20;;;0.60;;
71125;SDS011;58785;55.566;38.058;2023-10-13T01:00:06;4.88;;;0.80;;
71125;SDS011;58785;55.566;38.058;2023-10-13T01:02:59;5.47;;;0.75;;
71125;SDS011;58785;55.566;38.058;2023-10-13T01:05:32;2.35;;;0.50;;
71125;SDS011;58785;55.566;38.058;2023-10-13T01:08:00;4.72;;;0.60;;
71125;SDS011;58785;55.566;38.058;2023-10-13T01:10:37;9.17;;;0.80;;
71125;SDS011;58785;55.566;38.058;2023-10-13T01:13:12;5.82;;;0.93;;
71125;SDS011;58785;55.566;38.058;2023-10-13T01:15:38;5.28;;;0.65;;
71125;SDS011;58785;55.566;38.058;2023-10-13T01:18:09;5.00;;;0.50;;
71125;SDS011;58785;55.566;38.058;2023-10-13T01:20:39;3.67;;;0.68;;
71125;SDS011;58785;55.566;38.058;2023-10-13T01:23:18;3.83;;;0.60;;
71125;SDS011;58785;55.566;38.058;2023-10-13T01:25:45;4.47;;;0.85;;
71125;SDS011;58785;55.566;38.058;2023-10-13T01:28:12;6.40;;;0.77;;
71125;SDS011;58785;55.566;38.058;2023-10-13T01:30:44;3.40;;;0.60;;
71125;SDS011;58785;55.566;38.058;2023-10-13T01:33:19;5.20;;;0.80;;
71125;SDS011;58785;55.566;38.058;2023-10-13T01:35:52;3.13;;;0.70;;
71125;SDS011;58785;55.566;38.058;2023-10-13T01:38:20;5.85;;;1.00;;
71125;SDS011;58785;55.566;38.058;2023-10-13T01:40:47;3.22;;;0.73;;
71125;SDS011;58785;55.566;38.058;2023-10-13T01:43:17;5.68;;;0.85;;
71125;SDS011;58785;55.566;38.058;2023-10-13T01:45:43;3.08;;;0.75;;
71125;SDS011;58785;55.566;38.058;2023-10-13T01:48:12;4.40;;;0.60;;
71125;SDS011;58785;55.566;38.058;2023-10-13T01:50:46;4.57;;;0.70;;
71125;SDS011;58785;55.566;38.058;2023-10-13T01:53:14;6.03;;;1.10;;
71125;SDS011;58785;55.566;38.058;2023-10-13T01:55:43;4.68;;;0.52;;
71125;SDS011;58785;55.566;38.058;2023-10-13T01:58:13;4.93;;;0.60;;
71125;SDS011;58785;55.566;38.058;2023-10-13T02:00:44;4.43;;;0.80;;
71125;SDS011;58785;55.566;38.058;2023-10-13T02:03:13;6.60;;;0.90;;
71125;SDS011;58785;55.566;38.058;2023-10-13T02:05:44;7.85;;;1.00;;
71125;SDS011;58785;55.566;38.058;2023-10-13T02:08:19;5.63;;;0.88;;
71125;SDS011;58785;55.566;38.058;2023-10-13T02:10:56;5.22;;;0.70;;
71125;SDS011;58785;55.566;38.058;2023-10-13T02:13:25;4.50;;;0.87;;
71125;SDS011;58785;55.566;38.058;2023-10-13T02:15:54;5.03;;;0.90;;
71125;SDS011;58785;55.566;38.058;2023-10-13T02:18:23;3.33;;;0.70;;
71125;SDS011;58785;55.566;38.058;2023-10-13T02:20:54;3.70;;;0.75;;
71125;SDS011;58785;55.566;38.058;2023-10-13T02:23:23;4.20;;;0.80;;
71125;SDS011;58785;55.566;38.058;2023-10-13T02:25:56;8.80;;;0.70;;
71125;SDS011;58785;55.566;38.058;2023-10-13T02:28:41;4.68;;;0.55;;
71125;SDS011;58785;55.566;38.058;2023-10-13T02:31:09;6.70;;;0.60;;
71125;SDS011;58785;55.566;38.058;2023-10-13T02:33:37;10.40;;;1.50;;
71125;SDS011;58785;55.566;38.058;2023-10-13T02:36:13;4.20;;;0.50;;
71125;SDS011;58785;55.566;38.058;2023-10-13T02:38:48;6.97;;;0.70;;
71125;SDS011;58785;55.566;38.058;2023-10-13T02:41:17;4.90;;;0.40;;
71125;SDS011;58785;55.566;38.058;2023-10-13T02:43:54;9.05;;;1.00;;
71125;SDS011;58785;55.566;38.058;2023-10-13T02:46:23;7.10;;;0.82;;
71125;SDS011;58785;55.566;38.058;2023-10-13T02:48:59;4.20;;;0.60;;
71125;SDS011;58785;55.566;38.058;2023-10-13T02:51:28;3.77;;;0.67;;
71125;SDS011;58785;55.566;38.058;2023-10-13T02:54:04;7.40;;;0.90;;
71125;SDS011;58785;55.566;38.058;2023-10-13T02:56:38;4.13;;;0.80;;
71125;SDS011;58785;55.566;38.058;2023-10-13T02:59:26;4.18;;;0.60;;
71125;SDS011;58785;55.566;38.058;2023-10-13T03:02:21;6.22;;;0.80;;
71125;SDS011;58785;55.566;38.058;2023-10-13T03:04:56;6.03;;;0.83;;
71125;SDS011;58785;55.566;38.058;2023-10-13T03:07:36;2.92;;;0.60;;
71125;SDS011;58785;55.566;38.058;2023-10-13T03:10:03;5.93;;;1.00;;
71125;SDS011;58785;55.566;38.058;2023-10-13T03:12:35;7.22;;;1.52;;
71125;SDS011;58785;55.566;38.058;2023-10-13T03:15:03;4.00;;;0.63;;
71125;SDS011;58785;55.566;38.058;2023-10-13T03:17:44;3.67;;;0.60;;
71125;SDS011;58785;55.566;38.058;2023-10-13T03:20:17;6.93;;;1.17;;
71125;SDS011;58785;55.566;38.058;2023-10-13T03:22:48;7.45;;;1.13;;
71125;SDS011;58785;55.566;38.058;2023-10-13T03:25:30;6.00;;;0.90;;
71125;SDS011;58785;55.566;38.058;2023-10-13T03:28:03;5.35;;;0.85;;
71125;SDS011;58785;55.566;38.058;2023-10-13T03:30:45;4.13;;;0.63;;
71125;SDS011;58785;55.566;38.058;2023-10-13T03:33:12;4.93;;;1.00;;
71125;SDS011;58785;55.566;38.058;2023-10-13T03:35:39;5.35;;;0.70;;
71125;SDS011;58785;55.566;38.058;2023-10-13T03:38:11;9.60;;;0.82;;
71125;SDS011;58785;55.566;38.058;2023-10-13T03:40:43;6.78;;;1.00;;
71125;SDS011;58785;55.566;38.058;2023-10-13T03:43:38;7.17;;;0.63;;
71125;SDS011;58785;55.566;38.058;2023-10-13T03:46:34;4.78;;;0.80;;
71125;SDS011;58785;55.566;38.058;2023-10-13T03:49:05;6.30;;;0.60;;
71125;SDS011;58785;55.566;38.058;2023-10-13T03:51:32;3.47;;;0.75;;
71125;SDS011;58785;55.566;38.058;2023-10-13T03:53:59;5.28;;;0.80;;
71125;SDS011;58785;55.566;38.058;2023-10-13T03:56:33;4.10;;;0.80;;
71125;SDS011;58785;55.566;38.058;2023-10-13T03:59:05;3.83;;;0.77;;
71125;SDS011;58785;55.566;38.058;2023-10-13T04:01:35;6.50;;;0.85;;
71125;SDS011;58785;55.566;38.058;2023-10-13T04:04:19;5.72;;;0.70;;
71125;SDS011;58785;55.566;38.058;2023-10-13T04:07:04;3.38;;;0.70;;
71125;SDS011;58785;55.566;38.058;2023-10-13T04:09:34;5.10;;;0.70;;
71125;SDS011;58785;55.566;38.058;2023-10-13T04:12:13;6.05;;;0.60;;
71125;SDS011;58785;55.566;38.058;2023-10-13T04:14:41;4.50;;;0.82;;
71125;SDS011;58785;55.566;38.058;2023-10-13T04:17:23;4.13;;;0.60;;
71125;SDS011;58785;55.566;38.058;2023-10-13T04:19:54;5.90;;;0.80;;
71125;SDS011;58785;55.566;38.058;2023-10-13T04:25:23;3.95;;;0.75;;
71125;SDS011;58785;55.566;38.058;2023-10-13T04:28:10;5.88;;;0.80;;
71125;SDS011;58785;55.566;38.058;2023-10-13T04:30:58;6.28;;;1.00;;
71125;SDS011;58785;55.566;38.058;2023-10-13T04:33:32;4.28;;;0.70;;
71125;SDS011;58785;55.566;38.058;2023-10-13T04:36:19;6.63;;;0.70;;
71125;SDS011;58785;55.566;38.058;2023-10-13T04:38:49;4.53;;;0.70;;
71125;SDS011;58785;55.566;38.058;2023-10-13T04:41:38;4.28;;;0.82;;
71125;SDS011;58785;55.566;38.058;2023-10-13T04:44:10;4.60;;;0.80;;
71125;SDS011;58785;55.566;38.058;2023-10-13T04:46:57;8.82;;;1.42;;
71125;SDS011;58785;55.566;38.058;2023-10-13T04:49:25;6.23;;;1.47;;
71125;SDS011;58785;55.566;38.058;2023-10-13T04:52:03;6.15;;;0.95;;
71125;SDS011;58785;55.566;38.058;2023-10-13T04:54:34;5.70;;;1.38;;
71125;SDS011;58785;55.566;38.058;2023-10-13T04:57:13;4.82;;;0.80;;
71125;SDS011;58785;55.566;38.058;2023-10-13T05:00:03;5.65;;;0.80;;
71125;SDS011;58785;55.566;38.058;2023-10-13T05:02:38;5.97;;;1.00;;
71125;SDS011;58785;55.566;38.058;2023-10-13T05:05:08;5.75;;;0.80;;
71125;SDS011;58785;55.566;38.058;2023-10-13T05:07:47;4.22;;;0.80;;
71125;SDS011;58785;55.566;38.058;2023-10-13T05:10:33;4.95;;;0.82;;
71125;SDS011;58785;55.566;38.058;2023-10-13T05:13:24;5.65;;;0.85;;
71125;SDS011;58785;55.566;38.058;2023-10-13T05:16:08;6.07;;;0.80;;
71125;SDS011;58785;55.566;38.058;2023-10-13T05:18:52;6.75;;;0.90;;
71125;SDS011;58785;55.566;38.058;2023-10-13T05:21:37;8.57;;;1.15;;
71125;SDS011;58785;55.566;38.058;2023-10-13T05:24:22;5.10;;;0.95;;
71125;SDS011;58785;55.566;38.058;2023-10-13T05:27:07;8.40;;;1.15;;
71125;SDS011;58785;55.566;38.058;2023-10-13T05:29:51;7.93;;;1.20;;
71125;SDS011;58785;55.566;38.058;2023-10-13T05:32:36;5.68;;;1.10;;
71125;SDS011;58785;55.566;38.058;2023-10-13T05:35:20;6.13;;;0.70;;
71125;SDS011;58785;55.566;38.058;2023-10-13T05:38:05;8.13;;;1.15;;
71125;SDS011;58785;55.566;38.058;2023-10-13T05:40:52;6.85;;;1.05;;
71125;SDS011;58785;55.566;38.058;2023-10-13T05:43:37;4.67;;;0.70;;
71125;SDS011;58785;55.566;38.058;2023-10-13T05:46:21;8.27;;;1.15;;
71125;SDS011;58785;55.566;38.058;2023-10-13T05:48:53;6.18;;;1.30;;
71125;SDS011;58785;55.566;38.058;2023-10-13T05:51:26;4.60;;;0.60;;
71125;SDS011;58785;55.566;38.058;2023-10-13T05:54:15;9.65;;;0.98;;
71125;SDS011;58785;55.566;38.058;2023-10-13T05:59:30;5.03;;;1.10;;
71125;SDS011;58785;55.566;38.058;2023-10-13T06:02:16;10.70;;;1.13;;
71125;SDS011;58785;55.566;38.058;2023-10-13T06:05:05;6.93;;;0.93;;
71125;SDS011;58785;55.566;38.058;2023-10-13T06:07:52;7.47;;;1.40;;
71125;SDS011;58785;55.566;38.058;2023-10-13T06:10:38;5.83;;;1.20;;
71125;SDS011;58785;55.566;38.058;2023-10-13T06:13:23;8.10;;;1.38;;
71125;SDS011;58785;55.566;38.058;2023-10-13T06:16:09;5.22;;;1.30;;
71125;SDS011;58785;55.566;38.058;2023-10-13T06:18:55;6.82;;;1.30;;
71125;SDS011;58785;55.566;38.058;2023-10-13T06:21:40;9.90;;;1.50;;
71125;SDS011;58785;55.566;38.058;2023-10-13T06:24:29;8.10;;;1.23;;
71125;SDS011;58785;55.566;38.058;2023-10-13T06:27:16;8.75;;;1.10;;
71125;SDS011;58785;55.566;38.058;2023-10-13T06:30:02;3.90;;;0.77;;
71125;SDS011;58785;55.566;38.058;2023-10-13T06:32:33;5.47;;;1.17;;
71125;SDS011;58785;55.566;38.058;2023-10-13T06:35:01;4.57;;;0.80;;
71125;SDS011;58785;55.566;38.058;2023-10-13T06:37:34;7.33;;;0.90;;
71125;SDS011;58785;55.566;38.058;2023-10-13T06:40:10;7.90;;;1.10;;
71125;SDS011;58785;55.566;38.058;2023-10-13T06:42:47;5.50;;;1.15;;
71125;SDS011;58785;55.566;38.058;2023-10-13T06:45:13;5.72;;;0.73;;
71125;SDS011;58785;55.566;38.058;2023-10-13T06:47:42;6.78;;;1.13;;
71125;SDS011;58785;55.566;38.058;2023-10-13T06:50:09;6.17;;;1.10;;
71125;SDS011;58785;55.566;38.058;2023-10-13T06:52:42;8.50;;;0.95;;
71125;SDS011;58785;55.566;38.058;2023-10-13T06:55:09;5.97;;;0.90;;
71125;SDS011;58785;55.566;38.058;2023-10-13T06:57:42;7.18;;;1.15;;
71125;SDS011;58785;55.566;38.058;2023-10-13T07:00:12;6.32;;;1.15;;
71125;SDS011;58785;55.566;38.058;2023-10-13T07:02:51;5.80;;;0.73;;
71125;SDS011;58785;55.566;38.058;2023-10-13T07:05:18;5.78;;;0.90;;
71125;SDS011;58785;55.566;38.058;2023-10-13T07:07:45;6.03;;;0.95;;
71125;SDS011;58785;55.566;38.058;2023-10-13T07:10:12;6.22;;;1.58;;
71125;SDS011;58785;55.566;38.058;2023-10-13T07:12:39;5.57;;;0.75;;
71125;SDS011;58785;55.566;38.058;2023-10-13T07:15:10;6.33;;;0.70;;
71125;SDS011;58785;55.566;38.058;2023-10-13T07:17:42;10.15;;;0.68;;
71125;SDS011;58785;55.566;38.058;2023-10-13T07:20:10;3.03;;;0.38;;
71125;SDS011;58785;55.566;38.058;2023-10-13T07:22:59;8.65;;;0.98;;
71125;SDS011;58785;55.566;38.058;2023-10-13T07:25:29;11.30;;;0.98;;
71125;SDS011;58785;55.566;38.058;2023-10-13T07:27:59;4.77;;;0.70;;
71125;SDS011;58785;55.566;38.058;2023-10-13T07:30:26;10.25;;;2.10;;
71125;SDS011;58785;55.566;38.058;2023-10-13T07:32:53;7.30;;;1.08;;
71125;SDS011;58785;55.566;38.058;2023-10-13T07:35:25;6.38;;;1.10;;
71125;SDS011;58785;55.566;38.058;2023-10-13T07:37:51;6.22;;;0.60;;
71125;SDS011;58785;55.566;38.058;2023-10-13T07:40:19;5.23;;;0.50;;
71125;SDS011;58785;55.566;38.058;2023-10-13T07:42:54;7.90;;;0.80;;
71125;SDS011;58785;55.566;38.058;2023-10-13T07:45:27;6.55;;;1.05;;
71125;SDS011;58785;55.566;38.058;2023-10-13T07:48:03;10.23;;;2.03;;
71125;SDS011;58785;55.566;38.058;2023-10-13T07:50:41;12.63;;;1.73;;
71125;SDS011;58785;55.566;38.058;2023-10-13T07:53:07;5.70;;;0.90;;
71125;SDS011;58785;55.566;38.058;2023-10-13T07:55:50;4.75;;;0.73;;
71125;SDS011;58785;55.566;38.058;2023-10-13T07:58:28;5.88;;;0.70;;
71125;SDS011;58785;55.566;38.058;2023-10-13T08:00:53;4.03;;;0.90;;
71125;SDS011;58785;55.566;38.058;2023-10-13T08:03:42;4.75;;;0.80;;
71125;SDS011;58785;55.566;38.058;2023-10-13T08:06:12;17.37;;;2.67;;
71125;SDS011;58785;55.566;38.058;2023-10-13T08:08:40;5.45;;;1.05;;
71125;SDS011;58785;55.566;38.058;2023-10-13T08:13:46;4.25;;;0.90;;
71125;SDS011;58785;55.566;38.058;2023-10-13T08:16:22;6.65;;;0.80;;
71125;SDS011;58785;55.566;38.058;2023-10-13T08:18:53;3.23;;;0.50;;
71125;SDS011;58785;55.566;38.058;2023-10-13T08:21:19;13.23;;;1.50;;
71125;SDS011;58785;55.566;38.058;2023-10-13T08:23:49;11.27;;;1.95;;
71125;SDS011;58785;55.566;38.058;2023-10-13T08:26:22;6.85;;;1.40;;
71125;SDS011;58785;55.566;38.058;2023-10-13T08:28:58;4.80;;;0.80;;
71125;SDS011;58785;55.566;38.058;2023-10-13T08:31:48;4.77;;;0.77;;
71125;SDS011;58785;55.566;38.058;2023-10-13T08:34:36;5.75;;;1.10;;
71125;SDS011;58785;55.566;38.058;2023-10-13T08:37:09;6.63;;;1.10;;
71125;SDS011;58785;55.566;38.058;2023-10-13T08:40:04;7.63;;;1.20;;
71125;SDS011;58785;55.566;38.058;2023-10-13T08:42:35;4.55;;;1.00;;
71125;SDS011;58785;55.566;38.058;2023-10-13T08:47:49;7.63;;;0.77;;
71125;SDS011;58785;55.566;38.058;2023-10-13T08:50:35;5.43;;;0.70;;
71125;SDS011;58785;55.566;38.058;2023-10-13T08:53:24;5.53;;;0.80;;
71125;SDS011;58785;55.566;38.058;2023-10-13T08:58:30;3.13;;;0.80;;
71125;SDS011;58785;55.566;38.058;2023-10-13T09:01:15;5.20;;;0.82;;
71125;SDS011;58785;55.566;38.058;2023-10-13T09:03:59;6.43;;;0.77;;
71125;SDS011;58785;55.566;38.058;2023-10-13T09:06:49;4.72;;;0.85;;
71125;SDS011;58785;55.566;38.058;2023-10-13T09:09:29;2.40;;;0.43;;
71125;SDS011;58785;55.566;38.058;2023-10-13T09:12:22;2.03;;;0.40;;
71125;SDS011;58785;55.566;38.058;2023-10-13T09:17:41;3.92;;;0.63;;
71125;SDS011;58785;55.566;38.058;2023-10-13T09:20:27;3.78;;;0.65;;
71125;SDS011;58785;55.566;38.058;2023-10-13T09:23:10;5.63;;;0.90;;
71125;SDS011;58785;55.566;38.058;2023-10-13T09:25:52;3.57;;;0.67;;
71125;SDS011;58785;55.566;38.058;2023-10-13T09:28:27;5.32;;;0.60;;
71125;SDS011;58785;55.566;38.058;2023-10-13T09:30:56;2.17;;;0.60;;
71125;SDS011;58785;55.566;38.058;2023-10-13T09:33:26;2.90;;;0.52;;
71125;SDS011;58785;55.566;38.058;2023-10-13T09:54:55;15.32;;;2.20;;
71125;SDS011;58785;55.566;38.058;2023-10-13T09:57:29;5.63;;;1.20;;
71125;SDS011;58785;55.566;38.058;2023-10-13T10:00:09;7.90;;;1.30;;
71125;SDS011;58785;55.566;38.058;2023-10-13T10:02:56;16.33;;;2.10;;
71125;SDS011;58785;55.566;38.058;2023-10-13T10:05:39;9.45;;;1.60;;
71125;SDS011;58785;55.566;38.058;2023-10-13T10:08:23;8.88;;;1.42;;
71125;SDS011;58785;55.566;38.058;2023-10-13T10:17:05;10.20;;;1.50;;
71125;SDS011;58785;55.566;38.058;2023-10-13T10:19:26;4.10;;;0.88;;
71125;SDS011;58785;55.566;38.058;2023-10-13T10:22:02;4.75;;;0.77;;
71125;SDS011;58785;55.566;38.058;2023-10-13T10:24:55;7.90;;;1.25;;
71125;SDS011;58785;55.566;38.058;2023-10-13T10:27:29;4.40;;;0.90;;
71125;SDS011;58785;55.566;38.058;2023-10-13T10:29:56;3.78;;;0.85;;
71125;SDS011;58785;55.566;38.058;2023-10-13T10:32:41;7.68;;;1.92;;
71125;SDS011;58785;55.566;38.058;2023-10-13T10:35:11;5.30;;;1.15;;
71125;SDS011;58785;55.566;38.058;2023-10-13T10:37:40;6.35;;;0.85;;
71125;SDS011;58785;55.566;38.058;2023-10-13T10:40:16;3.80;;;0.70;;
71125;SDS011;58785;55.566;38.058;2023-10-13T10:43:01;3.78;;;0.75;;
71125;SDS011;58785;55.566;38.058;2023-10-13T10:45:31;7.25;;;1.02;;
71125;SDS011;58785;55.566;38.058;2023-10-13T10:48:00;6.85;;;0.80;;
71125;SDS011;58785;55.566;38.058;2023-10-13T10:50:42;4.40;;;0.60;;
71125;SDS011;58785;55.566;38.058;2023-10-13T10:53:10;3.73;;;0.63;;
71125;SDS011;58785;55.566;38.058;2023-10-13T10:55:39;4.80;;;0.77;;
71125;SDS011;58785;55.566;38.058;2023-10-13T10:58:05;3.45;;;0.70;;
71125;SDS011;58785;55.566;38.058;2023-10-13T11:00:32;4.47;;;1.00;;
71125;SDS011;58785;55.566;38.058;2023-10-13T11:03:27;4.03;;;0.88;;
71125;SDS011;58785;55.566;38.058;2023-10-13T11:05:53;5.17;;;0.80;;
71125;SDS011;58785;55.566;38.058;2023-10-13T11:08:22;5.85;;;0.70;;
71125;SDS011;58785;55.566;38.058;2023-10-13T11:11:01;3.38;;;0.80;;
71125;SDS011;58785;55.566;38.058;2023-10-13T11:13:27;5.65;;;0.82;;
71125;SDS011;58785;55.566;38.058;2023-10-13T11:15:57;6.80;;;0.53;;
71125;SDS011;58785;55.566;38.058;2023-10-13T11:18:29;2.65;;;0.50;;
71125;SDS011;58785;55.566;38.058;2023-10-13T11:21:06;3.85;;;0.70;;
71125;SDS011;58785;55.566;38.058;2023-10-13T11:23:37;4.10;;;0.65;;
71125;SDS011;58785;55.566;38.058;2023-10-13T11:26:05;5.03;;;0.90;;
71125;SDS011;58785;55.566;38.058;2023-10-13T11:28:31;2.67;;;0.70;;
71125;SDS011;58785;55.566;38.058;2023-10-13T11:30:59;3.58;;;0.80;;
71125;SDS011;58785;55.566;38.058;2023-10-13T11:33:36;3.95;;;1.00;;
71125;SDS011;58785;55.566;38.058;2023-10-13T11:56:53;10.82;;;2.22;;
71125;SDS011;58785;55.566;38.058;2023-10-13T11:59:23;4.65;;;0.80;;
71125;SDS011;58785;55.566;38.058;2023-10-13T12:01:52;4.80;;;0.80;;
71125;SDS011;58785;55.566;38.058;2023-10-13T12:04:37;10.07;;;1.80;;
71125;SDS011;58785;55.566;38.058;2023-10-13T12:07:20;6.20;;;1.20;;
71125;SDS011;58785;55.566;38.058;2023-10-13T12:10:06;5.40;;;0.90;;
71125;SDS011;58785;55.566;38.058;2023-10-13T12:12:40;5.07;;;1.25;;
71125;SDS011;58785;55.566;38.058;2023-10-13T12:15:08;12.20;;;2.03;;
71125;SDS011;58785;55.566;38.058;2023-10-13T12:17:38;9.32;;;1.00;;
71125;SDS011;58785;55.566;38.058;2023-10-13T12:20:10;6.78;;;1.10;;
71125;SDS011;58785;55.566;38.058;2023-10-13T12:22:43;3.53;;;0.73;;
71125;SDS011;58785;55.566;38.058;2023-10-13T12:25:17;4.10;;;0.80;;
71125;SDS011;58785;55.566;38.058;2023-10-13T12:27:58;9.20;;;1.10;;
71125;SDS011;58785;55.566;38.058;2023-10-13T12:30:38;7.80;;;1.08;;
71125;SDS011;58785;55.566;38.058;2023-10-13T12:33:20;6.07;;;0.82;;
71125;SDS011;58785;55.566;38.058;2023-10-13T12:35:59;3.60;;;0.90;;
71125;SDS011;58785;55.566;38.058;2023-10-13T12:38:35;8.45;;;1.10;;
71125;SDS011;58785;55.566;38.058;2023-10-13T12:41:19;6.80;;;1.30;;
71125;SDS011;58785;55.566;38.058;2023-10-13T12:44:04;4.15;;;0.95;;
71125;SDS011;58785;55.566;38.058;2023-10-13T12:46:49;7.88;;;1.00;;
71125;SDS011;58785;55.566;38.058;2023-10-13T12:49:35;3.35;;;0.77;;
71125;SDS011;58785;55.566;38.058;2023-10-13T12:52:09;3.75;;;0.60;;
71125;SDS011;58785;55.566;38.058;2023-10-13T12:54:54;6.03;;;0.80;;
71125;SDS011;58785;55.566;38.058;2023-10-13T12:57:23;6.30;;;2.55;;
71125;SDS011;58785;55.566;38.058;2023-10-13T12:59:54;5.75;;;0.90;;
71125;SDS011;58785;55.566;38.058;2023-10-13T13:02:24;3.60;;;0.60;;
71125;SDS011;58785;55.566;38.058;2023-10-13T13:04:51;3.63;;;0.73;;
71125;SDS011;58785;55.566;38.058;2023-10-13T13:07:24;7.67;;;1.03;;
71125;SDS011;58785;55.566;38.058;2023-10-13T13:09:55;4.90;;;1.05;;
71125;SDS011;58785;55.566;38.058;2023-10-13T13:12:25;8.43;;;1.02;;
71125;SDS011;58785;55.566;38.058;2023-10-13T13:14:54;7.32;;;1.23;;
71125;SDS011;58785;55.566;38.058;2023-10-13T13:17:22;9.02;;;1.45;;
71125;SDS011;58785;55.566;38.058;2023-10-13T13:19:48;4.70;;;0.90;;
71125;SDS011;58785;55.566;38.058;2023-10-13T13:22:14;3.60;;;0.80;;
71125;SDS011;58785;55.566;38.058;2023-10-13T13:24:45;6.25;;;1.10;;
71125;SDS011;58785;55.566;38.058;2023-10-13T13:27:16;5.80;;;1.23;;
71125;SDS011;58785;55.566;38.058;2023-10-13T13:29:48;4.57;;;1.20;;
71125;SDS011;58785;55.566;38.058;2023-10-13T13:32:15;5.53;;;1.30;;
71125;SDS011;58785;55.566;38.058;2023-10-13T13:34:50;7.78;;;1.58;;
71125;SDS011;58785;55.566;38.058;2023-10-13T13:37:24;5.05;;;0.80;;
71125;SDS011;58785;55.566;38.058;2023-10-13T13:39:53;5.15;;;1.05;;
71125;SDS011;58785;55.566;38.058;2023-10-13T13:42:19;7.53;;;1.05;;
71125;SDS011;58785;55.566;38.058;2023-10-13T13:44:45;6.87;;;1.30;;
71125;SDS011;58785;55.566;38.058;2023-10-13T13:47:14;7.32;;;1.20;;
71125;SDS011;58785;55.566;38.058;2023-10-13T13:49:41;3.65;;;1.00;;
71125;SDS011;58785;55.566;38.058;2023-10-13T13:52:12;5.30;;;1.10;;
71125;SDS011;58785;55.566;38.058;2023-10-13T13:54:46;5.80;;;1.00;;
71125;SDS011;58785;55.566;38.058;2023-10-13T13:57:14;5.83;;;1.10;;
71125;SDS011;58785;55.566;38.058;2023-10-13T13:59:39;7.43;;;1.40;;
71125;SDS011;58785;55.566;38.058;2023-10-13T14:02:10;8.27;;;1.38;;
71125;SDS011;58785;55.566;38.058;2023-10-13T14:04:46;8.35;;;1.60;;
71125;SDS011;58785;55.566;38.058;2023-10-13T14:07:16;6.68;;;1.63;;
71125;SDS011;58785;55.566;38.058;2023-10-13T14:09:46;11.43;;;2.00;;
71125;SDS011;58785;55.566;38.058;2023-10-13T14:12:17;8.43;;;1.83;;
71125;SDS011;58785;55.566;38.058;2023-10-13T14:15:02;9.13;;;2.22;;
71125;SDS011;58785;55.566;38.058;2023-10-13T14:17:30;9.68;;;2.10;;
71125;SDS011;58785;55.566;38.058;2023-10-13T14:20:01;9.10;;;1.83;;
71125;SDS011;58785;55.566;38.058;2023-10-13T14:22:40;7.20;;;1.40;;
71125;SDS011;58785;55.566;38.058;2023-10-13T14:25:07;7.10;;;1.80;;
71125;SDS011;58785;55.566;38.058;2023-10-13T14:27:43;10.02;;;1.77;;
71125;SDS011;58785;55.566;38.058;2023-10-13T14:30:09;8.57;;;1.95;;
71125;SDS011;58785;55.566;38.058;2023-10-13T14:32:45;8.75;;;1.50;;
71125;SDS011;58785;55.566;38.058;2023-10-13T14:35:11;5.97;;;1.57;;
71125;SDS011;58785;55.566;38.058;2023-10-13T14:37:40;7.18;;;1.85;;
71125;SDS011;58785;55.566;38.058;2023-10-13T14:40:06;6.93;;;1.45;;
71125;SDS011;58785;55.566;38.058;2023-10-13T14:42:38;6.72;;;1.38;;
71125;SDS011;58785;55.566;38.058;2023-10-13T14:45:07;7.85;;;1.52;;
71125;SDS011;58785;55.566;38.058;2023-10-13T14:47:45;8.63;;;1.70;;
71125;SDS011;58785;55.566;38.058;2023-10-13T14:50:17;10.70;;;1.52;;
71125;SDS011;58785;55.566;38.058;2023-10-13T14:52:48;7.10;;;1.33;;
71125;SDS011;58785;55.566;38.058;2023-10-13T14:55:15;6.85;;;1.45;;
71125;SDS011;58785;55.566;38.058;2023-10-13T14:57:47;7.10;;;1.55;;
71125;SDS011;58785;55.566;38.058;2023-10-13T15:00:16;8.93;;;1.53;;
71125;SDS011;58785;55.566;38.058;2023-10-13T15:02:51;10.52;;;1.30;;
71125;SDS011;58785;55.566;38.058;2023-10-13T15:05:18;8.45;;;1.40;;
71125;SDS011;58785;55.566;38.058;2023-10-13T15:07:47;7.85;;;1.30;;
71125;SDS011;58785;55.566;38.058;2023-10-13T15:10:13;8.18;;;1.45;;
71125;SDS011;58785;55.566;38.058;2023-10-13T15:12:43;8.87;;;2.00;;
71125;SDS011;58785;55.566;38.058;2023-10-13T15:15:14;13.90;;;4.80;;
71125;SDS011;58785;55.566;38.058;2023-10-13T15:17:45;8.77;;;1.95;;
71125;SDS011;58785;55.566;38.058;2023-10-13T15:20:12;7.57;;;1.83;;
71125;SDS011;58785;55.566;38.058;2023-10-13T15:22:44;8.85;;;1.90;;
71125;SDS011;58785;55.566;38.058;2023-10-13T15:25:13;9.93;;;2.30;;
71125;SDS011;58785;55.566;38.058;2023-10-13T15:27:58;9.50;;;1.83;;
71125;SDS011;58785;55.566;38.058;2023-10-13T15:30:34;9.75;;;2.20;;
71125;SDS011;58785;55.566;38.058;2023-10-13T15:33:11;8.57;;;2.20;;
71125;SDS011;58785;55.566;38.058;2023-10-13T15:35:39;12.55;;;2.22;;
71125;SDS011;58785;55.566;38.058;2023-10-13T15:38:11;8.73;;;2.20;;
71125;SDS011;58785;55.566;38.058;2023-10-13T15:40:41;9.70;;;2.78;;
71125;SDS011;58785;55.566;38.058;2023-10-13T15:43:10;9.05;;;3.08;;
71125;SDS011;58785;55.566;38.058;2023-10-13T15:45:39;8.27;;;2.60;;
71125;SDS011;58785;55.566;38.058;2023-10-13T15:48:08;11.02;;;3.60;;
71125;SDS011;58785;55.566;38.058;2023-10-13T15:50:37;15.47;;;3.30;;
71125;SDS011;58785;55.566;38.058;2023-10-13T15:53:07;10.98;;;3.28;;
71125;SDS011;58785;55.566;38.058;2023-10-13T15:55:41;13.70;;;2.83;;
71125;SDS011;58785;55.566;38.058;2023-10-13T15:58:11;11.05;;;3.03;;
71125;SDS011;58785;55.566;38.058;2023-10-13T16:00:38;7.85;;;2.85;;
71125;SDS011;58785;55.566;38.058;2023-10-13T16:03:05;7.07;;;2.47;;
71125;SDS011;58785;55.566;38.058;2023-10-13T16:05:37;6.70;;;2.55;;
71125;SDS011;58785;55.566;38.058;2023-10-13T16:08:08;9.68;;;3.10;;
71125;SDS011;58785;55.566;38.058;2023-10-13T16:10:38;9.40;;;2.65;;
71125;SDS011;58785;55.566;38.058;2023-10-13T16:13:05;7.50;;;2.93;;
71125;SDS011;58785;55.566;38.058;2023-10-13T16:15:36;9.48;;;2.63;;
71125;SDS011;58785;55.566;38.058;2023-10-13T16:18:09;13.40;;;2.45;;
71125;SDS011;58785;55.566;38.058;2023-10-13T16:20:36;7.47;;;2.50;;